createdAt,value
2022-12-23T00:00:40.290Z,43.10
2022-12-23T00:03:07.479Z,44.10
2022-12-23T00:05:40.933Z,37.60
2022-12-23T00:08:08.067Z,44.10
2022-12-23T00:10:38.379Z,37.20
2022-12-23T00:13:23.942Z,41.60
2022-12-23T00:15:51.084Z,40.80
2022-12-23T00:18:18.071Z,35.90
2022-12-23T00:20:45.001Z,31.20
2022-12-23T00:23:11.946Z,38.80
2022-12-23T00:25:41.561Z,39.60
2022-12-23T00:28:19.539Z,41.70
2022-12-23T00:30:48.675Z,37.50
2022-12-23T00:33:16.257Z,41.30
2022-12-23T00:43:26.187Z,39.90
2022-12-23T00:45:53.752Z,40.70
2022-12-23T00:48:39.390Z,39.80
2022-12-23T00:51:06.350Z,38.80
2022-12-23T00:53:33.440Z,43.20
2022-12-23T00:56:00.300Z,36.50
2022-12-23T00:58:27.925Z,33.00
2022-12-23T01:01:13.604Z,30.30
2022-12-23T01:03:59.483Z,34.60
2022-12-23T01:06:26.565Z,33.20
2022-12-23T01:08:53.568Z,36.80
2022-12-23T01:19:05.429Z,32.80
2022-12-23T01:21:33.046Z,38.10
2022-12-23T01:24:00.139Z,35.90
2022-12-23T01:26:27.391Z,36.30
2022-12-23T01:28:55.858Z,34.50
2022-12-23T01:31:23.876Z,34.10
2022-12-23T01:33:52.005Z,38.40
2022-12-23T01:36:18.996Z,34.20
2022-12-23T01:38:45.899Z,25.80
2022-12-23T01:41:51.444Z,30.40
2022-12-23T01:44:56.193Z,35.40
2022-12-23T01:47:49.565Z,32.30
2022-12-23T01:50:28.061Z,34.60
2022-12-23T01:52:57.514Z,29.90
2022-12-23T01:55:27.218Z,37.30
2022-12-23T01:57:55.292Z,35.80
2022-12-23T02:00:41.052Z,35.00
2022-12-23T02:03:26.836Z,34.30
2022-12-23T02:05:54.155Z,32.40
2022-12-23T02:08:39.679Z,37.10
2022-12-23T02:11:19.406Z,34.00
2022-12-23T02:14:16.572Z,37.30
2022-12-23T02:16:50.970Z,34.00
2022-12-23T02:19:21.816Z,38.50
2022-12-23T02:22:10.764Z,32.70
2022-12-23T02:24:43.358Z,30.30
2022-12-23T02:27:24.436Z,32.10
2022-12-23T02:30:32.143Z,28.00
2022-12-23T02:33:09.494Z,30.40
2022-12-23T02:35:54.609Z,30.60
2022-12-23T02:38:40.758Z,27.70
2022-12-23T02:41:30.538Z,28.80
2022-12-23T02:44:00.471Z,32.10
2022-12-23T02:46:31.001Z,34.60
2022-12-23T02:49:09.753Z,27.20
2022-12-23T02:51:48.309Z,29.10
2022-12-23T02:54:18.896Z,26.90
2022-12-23T02:56:47.116Z,33.10
2022-12-23T02:59:19.580Z,30.80
2022-12-23T03:01:46.751Z,28.50
2022-12-23T03:04:14.606Z,29.70
2022-12-23T03:06:43.941Z,21.90
2022-12-23T03:09:11.251Z,20.90
2022-12-23T03:11:44.619Z,22.60
2022-12-23T03:14:31.485Z,24.00
2022-12-23T03:17:23.357Z,27.40
2022-12-23T03:19:53.559Z,26.50
2022-12-23T03:22:40.800Z,26.20
2022-12-23T03:25:24.693Z,29.40
2022-12-23T03:28:22.836Z,27.70
2022-12-23T03:30:53.432Z,26.60
2022-12-23T03:33:41.935Z,27.20
2022-12-23T03:36:12.218Z,28.70
2022-12-23T03:38:39.841Z,28.50
2022-12-23T03:41:09.500Z,33.70
2022-12-23T03:46:15.352Z,26.20
2022-12-23T03:48:53.799Z,27.80
2022-12-23T03:51:30.212Z,26.40
2022-12-23T03:54:02.169Z,31.90
2022-12-23T03:56:35.726Z,25.20
2022-12-23T03:59:11.529Z,27.60
2022-12-23T04:01:50.026Z,22.30
2022-12-23T04:04:40.391Z,25.60
2022-12-23T04:07:11.632Z,26.20
2022-12-23T04:43:35.595Z,30.00
2022-12-23T04:46:02.481Z,29.70
2022-12-23T04:48:31.167Z,26.70
2022-12-23T04:51:01.826Z,27.70
2022-12-23T04:53:28.615Z,32.50
2022-12-23T04:55:55.377Z,33.20
2022-12-23T04:58:24.173Z,31.90
2022-12-23T05:01:01.476Z,25.00
2022-12-23T05:03:28.471Z,35.10
2022-12-23T05:05:55.457Z,32.60
2022-12-23T05:08:22.165Z,29.90
2022-12-23T05:10:49.197Z,28.20
2022-12-23T05:13:16.030Z,22.20
2022-12-23T05:15:45.034Z,27.80
2022-12-23T05:18:18.139Z,26.90
2022-12-23T05:20:44.929Z,27.60
2022-12-23T05:23:11.908Z,24.20
2022-12-23T05:25:41.556Z,27.70
2022-12-23T05:28:09.558Z,27.40
2022-12-23T05:30:36.454Z,30.40
2022-12-23T05:33:03.347Z,40.30
2022-12-23T05:35:30.887Z,30.90
2022-12-23T05:37:57.817Z,25.90
2022-12-23T05:40:28.084Z,35.30
2022-12-23T05:42:57.614Z,29.60
2022-12-23T05:45:24.501Z,29.70
2022-12-23T05:47:51.801Z,32.60
2022-12-23T05:50:19.294Z,38.40
2022-12-23T05:52:46.918Z,34.90
2022-12-23T05:55:13.866Z,34.00
2022-12-23T05:57:40.747Z,32.30
2022-12-23T06:00:08.455Z,27.00
2022-12-23T06:02:40.289Z,23.60
2022-12-23T06:05:07.529Z,29.60
2022-12-23T06:07:35.435Z,29.30
2022-12-23T06:10:02.771Z,27.90
2022-12-23T06:12:29.973Z,30.00
2022-12-23T06:14:56.804Z,31.60
2022-12-23T06:17:23.812Z,31.50
2022-12-23T06:19:51.225Z,32.40
2022-12-23T06:22:18.339Z,35.30
2022-12-23T06:24:45.367Z,22.90
2022-12-23T06:27:12.140Z,25.80
2022-12-23T06:29:38.882Z,23.00
2022-12-23T06:32:05.761Z,31.30
2022-12-23T06:34:32.604Z,26.90
2022-12-23T06:36:59.455Z,26.90
2022-12-23T06:39:26.435Z,30.70
2022-12-23T06:43:15.517Z,29.10
2022-12-23T06:45:46.861Z,27.20
2022-12-23T06:48:13.922Z,29.40
2022-12-23T06:50:40.859Z,30.80
2022-12-23T06:53:08.745Z,30.20
2022-12-23T06:55:35.692Z,28.70
2022-12-23T06:58:02.446Z,32.40
2022-12-23T07:00:30.159Z,28.90
2022-12-23T07:02:57.174Z,28.60
2022-12-23T07:05:24.231Z,30.00
2022-12-23T07:07:51.080Z,33.30
2022-12-23T07:10:17.883Z,28.70
2022-12-23T07:12:50.347Z,36.50
2022-12-23T07:15:17.819Z,31.30
2022-12-23T07:17:44.607Z,27.30
2022-12-23T07:20:13.481Z,33.00
2022-12-23T07:22:40.548Z,33.90
2022-12-23T07:25:08.440Z,36.40
2022-12-23T07:27:35.192Z,34.60
2022-12-23T07:30:02.161Z,23.70
2022-12-23T07:32:29.115Z,22.60
2022-12-23T07:34:55.851Z,23.10
2022-12-23T07:37:22.729Z,30.60
2022-12-23T07:39:50.173Z,30.00
2022-12-23T07:42:43.401Z,31.30
2022-12-23T07:45:04.990Z,27.00
2022-12-23T07:47:32.149Z,30.10
2022-12-23T07:49:58.927Z,33.20
2022-12-23T07:52:25.857Z,31.50
2022-12-23T07:54:52.834Z,32.70
2022-12-23T07:57:19.683Z,27.00
2022-12-23T07:59:46.658Z,31.40
2022-12-23T08:02:13.534Z,31.00
2022-12-23T08:04:46.040Z,39.50
2022-12-23T08:07:13.671Z,35.30
2022-12-23T08:09:41.402Z,34.50
2022-12-23T08:12:08.240Z,30.50
2022-12-23T08:14:35.168Z,30.00
2022-12-23T08:17:02.141Z,33.30
2022-12-23T08:19:29.390Z,29.60
2022-12-23T08:21:56.258Z,32.10
2022-12-23T08:24:23.229Z,32.70
2022-12-23T08:26:50.439Z,29.50
2022-12-23T08:29:17.469Z,30.80
2022-12-23T08:31:44.409Z,35.00
2022-12-23T08:34:11.403Z,21.50
2022-12-23T08:36:40.078Z,21.80
2022-12-23T08:39:08.648Z,24.70
2022-12-23T08:41:37.567Z,28.60
2022-12-23T08:44:04.596Z,28.00
2022-12-23T08:46:31.518Z,29.90
2022-12-23T08:48:58.408Z,27.50
2022-12-23T08:51:25.927Z,30.60
2022-12-23T08:53:59.842Z,27.50
2022-12-23T08:56:32.423Z,29.40
2022-12-23T08:58:59.584Z,29.90
2022-12-23T09:01:28.234Z,30.10
2022-12-23T09:03:55.635Z,29.50
2022-12-23T09:06:29.891Z,29.20
2022-12-23T09:08:57.483Z,29.30
2022-12-23T09:11:27.522Z,28.10
2022-12-23T09:13:54.924Z,28.40
2022-12-23T09:16:22.024Z,33.70
2022-12-23T09:18:48.887Z,28.00
2022-12-23T09:21:17.987Z,28.30
2022-12-23T09:23:45.078Z,28.60
2022-12-23T09:26:11.933Z,26.00
2022-12-23T09:28:39.580Z,30.40
2022-12-23T09:31:10.912Z,29.60
2022-12-23T09:33:37.972Z,28.30
2022-12-23T09:36:05.119Z,27.40
2022-12-23T09:38:32.507Z,30.50
2022-12-23T09:41:04.069Z,28.90
2022-12-23T09:43:35.590Z,31.00
2022-12-23T09:46:24.507Z,30.60
2022-12-23T09:49:12.205Z,31.40
2022-12-23T09:51:39.086Z,29.50
2022-12-23T09:54:22.743Z,29.90
2022-12-23T09:56:55.233Z,33.30
2022-12-23T09:59:36.354Z,34.60
2022-12-23T10:02:12.411Z,24.40
2022-12-23T10:04:43.639Z,22.70
2022-12-23T10:07:22.272Z,26.20
2022-12-23T10:09:50.067Z,31.00
2022-12-23T10:12:42.110Z,29.70
2022-12-23T10:15:21.746Z,31.30
2022-12-23T10:17:49.897Z,30.80
2022-12-23T10:20:19.304Z,31.30
2022-12-23T10:25:17.030Z,29.20
2022-12-23T10:27:44.032Z,29.90
2022-12-23T10:30:34.340Z,30.80
2022-12-23T10:33:02.533Z,29.60
2022-12-23T10:35:45.784Z,33.90
2022-12-23T10:40:52.506Z,27.10
2022-12-23T10:43:35.719Z,31.80
2022-12-23T10:46:33.844Z,32.10
2022-12-23T10:49:20.342Z,30.20
2022-12-23T10:51:55.483Z,31.80
2022-12-23T10:54:31.977Z,31.40
2022-12-23T10:56:58.954Z,30.70
2022-12-23T10:59:29.293Z,34.60
2022-12-23T11:02:05.362Z,31.00
2022-12-23T11:04:36.764Z,31.80
2022-12-23T11:07:41.955Z,31.60
2022-12-23T11:09:57.384Z,31.20
2022-12-23T11:12:25.507Z,32.00
2022-12-23T11:14:54.502Z,33.50
2022-12-23T11:17:25.296Z,30.60
2022-12-23T11:20:10.277Z,35.00
2022-12-23T11:22:49.912Z,28.70
2022-12-23T11:25:41.389Z,30.20
2022-12-23T11:28:16.476Z,28.70
2022-12-23T11:30:56.646Z,27.40
2022-12-23T11:33:30.727Z,28.50
2022-12-23T11:36:19.987Z,28.10
2022-12-23T11:39:10.623Z,29.00
2022-12-23T11:41:37.925Z,28.40
2022-12-23T11:44:26.499Z,28.30
2022-12-23T11:46:53.301Z,29.30
2022-12-23T11:49:21.933Z,32.80
2022-12-23T11:52:01.938Z,28.70
2022-12-23T11:54:29.183Z,32.30
2022-12-23T11:56:56.063Z,34.80
2022-12-23T11:59:33.879Z,30.60
2022-12-23T12:02:03.497Z,22.10
2022-12-23T12:04:33.013Z,22.40
2022-12-23T12:07:00.916Z,23.60
2022-12-23T12:09:28.756Z,28.60
2022-12-23T12:12:07.262Z,28.00
2022-12-23T12:14:42.795Z,26.60
2022-12-23T12:17:31.679Z,29.80
2022-12-23T12:22:39.845Z,29.50
2022-12-23T12:25:18.723Z,30.70
2022-12-23T12:27:50.466Z,29.50
2022-12-23T12:30:19.619Z,30.90
2022-12-23T12:32:57.128Z,32.30
2022-12-23T12:35:38.156Z,30.70
2022-12-23T12:38:16.262Z,28.50
2022-12-23T12:40:45.837Z,31.00
2022-12-23T12:43:31.742Z,36.70
2022-12-23T12:46:09.033Z,33.40
2022-12-23T12:48:40.531Z,33.90
2022-12-23T12:51:11.589Z,34.60
2022-12-23T12:53:50.189Z,38.80
2022-12-23T12:56:28.507Z,30.60
2022-12-23T12:58:55.430Z,33.20
2022-12-23T13:01:40.460Z,33.10
2022-12-23T13:04:07.596Z,30.60
2022-12-23T13:06:41.258Z,34.90
2022-12-23T13:09:37.839Z,40.00
2022-12-23T13:12:15.940Z,34.80
2022-12-23T13:15:10.415Z,35.70
2022-12-23T13:17:49.206Z,34.80
2022-12-23T13:20:49.951Z,28.40
2022-12-23T13:23:42.743Z,28.00
2022-12-23T13:26:30.214Z,28.60
2022-12-23T13:29:06.136Z,34.50
2022-12-23T13:31:55.335Z,33.30
2022-12-23T13:34:43.434Z,35.70
2022-12-23T13:37:20.372Z,32.30
2022-12-23T13:39:55.121Z,35.80
2022-12-23T13:42:31.901Z,36.60
2022-12-23T13:44:58.762Z,31.20
2022-12-23T13:47:31.977Z,27.70
2022-12-23T13:50:15.828Z,36.20
2022-12-23T13:53:34.442Z,29.90
2022-12-23T13:56:17.347Z,23.30
2022-12-23T13:58:47.100Z,23.70
2022-12-23T14:01:17.662Z,31.40
2022-12-23T14:03:44.861Z,31.60
2022-12-23T14:06:24.724Z,30.30
2022-12-23T14:08:52.694Z,29.20
2022-12-23T14:11:32.460Z,32.00
2022-12-23T14:14:01.225Z,34.00
2022-12-23T14:16:36.891Z,34.80
2022-12-23T14:19:23.826Z,37.90
2022-12-23T14:22:01.098Z,34.40
2022-12-23T14:24:46.572Z,33.90
2022-12-23T14:27:36.607Z,35.30
2022-12-23T14:30:14.413Z,33.80
2022-12-23T14:32:57.073Z,33.70
2022-12-23T14:35:35.488Z,33.70
2022-12-23T14:38:16.279Z,35.30
2022-12-23T14:40:43.558Z,37.30
2022-12-23T14:43:22.951Z,35.20
2022-12-23T14:45:50.846Z,31.50
2022-12-23T14:48:36.056Z,33.90
2022-12-23T14:51:21.585Z,32.20
2022-12-23T14:53:52.218Z,34.70
2022-12-23T14:56:18.954Z,39.30
2022-12-23T14:58:45.767Z,34.10
2022-12-23T15:01:21.377Z,33.90
2022-12-23T15:03:57.570Z,34.20
2022-12-23T15:06:33.438Z,33.50
2022-12-23T15:09:00.610Z,31.40
2022-12-23T15:11:31.543Z,27.40
2022-12-23T15:14:00.405Z,36.90
2022-12-23T15:16:35.971Z,60.90
2022-12-23T15:19:26.006Z,58.30
2022-12-23T15:22:15.002Z,69.90
2022-12-23T15:24:46.574Z,73.20
2022-12-23T15:27:27.090Z,57.60
2022-12-23T15:29:55.058Z,61.20
2022-12-23T15:32:23.295Z,55.70
2022-12-23T15:34:50.705Z,88.10
2022-12-23T15:37:19.418Z,57.70
2022-12-23T15:39:47.081Z,52.20
2022-12-23T15:42:24.485Z,51.30
2022-12-23T15:44:52.254Z,46.20
2022-12-23T15:47:22.377Z,41.40
2022-12-23T15:49:49.174Z,41.00
2022-12-23T15:52:20.489Z,34.30
2022-12-23T15:55:20.719Z,41.10
2022-12-23T15:57:50.524Z,40.80
2022-12-23T16:00:47.952Z,45.70
2022-12-23T16:03:34.570Z,59.60
2022-12-23T16:06:17.351Z,41.20
2022-12-23T16:08:44.577Z,54.00
2022-12-23T16:11:18.989Z,42.70
2022-12-23T16:14:02.178Z,44.00
2022-12-23T16:16:31.367Z,69.00
2022-12-23T16:18:58.465Z,48.30
2022-12-23T16:21:32.383Z,38.10
2022-12-23T16:23:59.273Z,34.50
2022-12-23T16:26:26.139Z,28.60
2022-12-23T16:28:55.306Z,36.30
2022-12-23T16:31:22.138Z,51.20
2022-12-23T16:33:51.406Z,54.40
2022-12-23T16:36:20.302Z,39.60
2022-12-23T16:38:47.869Z,35.80
2022-12-23T16:41:14.861Z,41.90
2022-12-23T16:43:47.687Z,66.60
2022-12-23T16:46:19.554Z,50.00
2022-12-23T16:48:55.416Z,56.90
2022-12-23T16:51:22.927Z,49.50
2022-12-23T16:53:50.148Z,48.00
2022-12-23T16:56:19.033Z,56.40
2022-12-23T16:58:46.146Z,61.20
2022-12-23T17:01:26.265Z,52.20
2022-12-23T17:03:53.358Z,47.30
2022-12-23T17:06:20.344Z,41.70
2022-12-23T17:08:48.370Z,41.80
2022-12-23T17:11:18.965Z,39.70
2022-12-23T17:13:45.929Z,40.60
2022-12-23T17:16:20.144Z,51.00
2022-12-23T17:18:48.123Z,47.60
2022-12-23T17:21:23.662Z,49.00
2022-12-23T17:23:51.493Z,41.50
2022-12-23T17:26:18.303Z,40.90
2022-12-23T17:28:45.853Z,35.30
2022-12-23T17:31:15.547Z,38.20
2022-12-23T17:33:45.004Z,36.00
2022-12-23T17:36:12.165Z,42.90
2022-12-23T17:38:39.014Z,44.50
2022-12-23T17:41:05.919Z,57.40
2022-12-23T17:43:33.504Z,64.00
2022-12-23T17:46:00.472Z,56.40
2022-12-23T17:48:31.676Z,68.30
2022-12-23T17:50:59.316Z,71.60
2022-12-23T17:53:26.139Z,59.90
2022-12-23T17:55:52.990Z,48.50
2022-12-23T17:58:19.911Z,53.30
2022-12-23T18:00:47.175Z,52.00
2022-12-23T18:03:22.269Z,61.70
2022-12-23T18:05:49.505Z,62.80
2022-12-23T18:08:17.033Z,52.70
2022-12-23T18:10:44.635Z,49.80
2022-12-23T18:13:15.998Z,104.60
2022-12-23T18:15:43.289Z,66.90
2022-12-23T18:18:27.563Z,62.90
2022-12-23T18:20:58.326Z,53.20
2022-12-23T18:23:27.473Z,38.10
2022-12-23T18:25:55.412Z,37.40
2022-12-23T18:28:22.703Z,39.00
2022-12-23T18:30:50.305Z,50.90
2022-12-23T18:33:17.207Z,55.40
2022-12-23T18:35:48.612Z,37.80
2022-12-23T18:38:16.592Z,43.60
2022-12-23T18:40:43.547Z,47.90
2022-12-23T18:43:21.717Z,47.70
2022-12-23T18:45:52.903Z,36.40
2022-12-23T18:48:21.385Z,38.90
2022-12-23T18:50:48.605Z,56.30
2022-12-23T18:53:23.446Z,45.00
2022-12-23T18:55:51.400Z,48.60
2022-12-23T18:58:18.668Z,49.80
2022-12-23T19:00:47.709Z,50.60
2022-12-23T19:03:24.927Z,59.10
2022-12-23T19:05:52.260Z,58.30
2022-12-23T19:08:25.778Z,50.00
2022-12-23T19:10:54.358Z,46.50
2022-12-23T19:13:21.354Z,44.40
2022-12-23T19:15:48.161Z,47.40
2022-12-23T19:18:16.234Z,47.20
2022-12-23T19:20:44.049Z,33.10
2022-12-23T19:23:10.971Z,58.90
2022-12-23T19:25:41.039Z,56.40
2022-12-23T19:28:10.335Z,48.90
2022-12-23T19:30:40.510Z,87.00
2022-12-23T19:33:07.930Z,51.80
2022-12-23T19:35:35.785Z,48.10
2022-12-23T19:39:01.802Z,40.60
2022-12-23T19:41:28.829Z,39.20
2022-12-23T19:43:55.684Z,36.70
2022-12-23T19:46:22.624Z,60.70
2022-12-23T19:48:51.869Z,47.20
2022-12-23T19:51:18.869Z,47.20
2022-12-23T19:53:46.453Z,30.40
2022-12-23T19:56:14.747Z,39.30
2022-12-23T19:58:43.303Z,29.60
2022-12-23T20:01:12.883Z,41.20
2022-12-23T20:03:40.477Z,45.60
2022-12-23T20:06:08.238Z,49.30
2022-12-23T20:08:36.013Z,63.00
2022-12-23T20:11:07.826Z,68.30
2022-12-23T20:13:36.543Z,41.30
2022-12-23T20:16:04.270Z,46.20
2022-12-23T20:18:31.776Z,45.60
2022-12-23T20:20:59.616Z,36.70
2022-12-23T20:23:27.344Z,39.80
2022-12-23T20:25:54.771Z,34.00
2022-12-23T20:28:21.756Z,35.30
2022-12-23T20:30:48.856Z,33.60
2022-12-23T20:33:16.302Z,36.90
2022-12-23T20:35:43.277Z,34.00
2022-12-23T20:38:10.205Z,36.40
2022-12-23T20:40:37.102Z,33.70
2022-12-23T20:43:04.235Z,34.60
2022-12-23T20:45:31.646Z,33.40
2022-12-23T20:47:59.080Z,42.60
2022-12-23T20:50:26.028Z,61.40
2022-12-23T20:52:52.905Z,65.40
2022-12-23T20:55:19.932Z,42.40
2022-12-23T20:57:47.188Z,42.00
2022-12-23T21:00:14.927Z,42.20
2022-12-23T21:02:42.492Z,32.20
2022-12-23T21:05:09.704Z,33.40
2022-12-23T21:07:36.539Z,31.10
2022-12-23T21:10:03.829Z,32.50
2022-12-23T21:12:31.039Z,38.30
2022-12-23T21:14:58.174Z,35.50
2022-12-23T21:17:25.938Z,36.60
2022-12-23T21:19:52.939Z,37.10
2022-12-23T21:22:19.753Z,38.60
2022-12-23T21:24:46.656Z,48.60
2022-12-23T21:27:15.633Z,41.90
2022-12-23T21:29:42.461Z,44.40
2022-12-23T21:32:09.240Z,41.70
2022-12-23T21:34:36.679Z,47.10
2022-12-23T21:37:03.736Z,47.30
2022-12-23T21:39:31.138Z,44.20
2022-12-23T21:41:57.878Z,39.50
2022-12-23T21:44:24.965Z,41.00
2022-12-23T21:46:52.181Z,40.00
2022-12-23T21:49:20.159Z,71.60
2022-12-23T21:51:47.040Z,67.60
2022-12-23T21:54:14.062Z,52.60
2022-12-23T21:56:41.133Z,59.20
2022-12-23T21:59:11.508Z,44.30
2022-12-23T22:01:38.617Z,42.90
2022-12-23T22:04:05.755Z,46.00
2022-12-23T22:06:38.256Z,56.50
2022-12-23T22:09:06.399Z,53.20
2022-12-23T22:11:35.157Z,49.60
2022-12-23T22:14:03.214Z,41.80
2022-12-23T22:16:30.987Z,40.60
2022-12-23T22:18:58.457Z,42.70
2022-12-23T22:21:26.094Z,39.40
2022-12-23T22:23:53.585Z,38.30
2022-12-23T22:26:25.208Z,36.50
2022-12-23T22:28:54.450Z,44.50
2022-12-23T22:31:35.029Z,47.00
2022-12-23T22:34:02.353Z,51.50
2022-12-23T22:36:29.301Z,52.40
2022-12-23T22:38:57.784Z,50.60
2022-12-23T22:41:25.564Z,57.10
2022-12-23T22:43:52.605Z,46.40
2022-12-23T22:46:19.882Z,44.70
2022-12-23T22:48:47.062Z,38.40
2022-12-23T22:51:16.112Z,32.60
2022-12-23T22:53:43.154Z,33.30
2022-12-23T22:56:11.759Z,38.40
2022-12-23T22:58:38.827Z,34.90
2022-12-23T23:01:05.975Z,34.90
2022-12-23T23:03:33.706Z,37.00
2022-12-23T23:06:05.850Z,36.20
2022-12-23T23:08:32.951Z,38.50
2022-12-23T23:11:02.767Z,43.70
2022-12-23T23:13:32.616Z,46.10
2022-12-23T23:15:59.494Z,42.20
2022-12-23T23:18:26.972Z,41.50
2022-12-23T23:20:53.828Z,40.70
2022-12-23T23:23:22.565Z,31.50
2022-12-23T23:25:49.701Z,33.30
2022-12-23T23:28:16.719Z,30.50
2022-12-23T23:30:43.604Z,34.40
2022-12-23T23:33:10.844Z,42.10
2022-12-23T23:35:37.831Z,39.40
2022-12-23T23:38:04.657Z,36.70
2022-12-23T23:40:32.574Z,39.50
2022-12-23T23:42:59.790Z,41.90
2022-12-23T23:45:27.637Z,39.00
2022-12-23T23:47:55.445Z,41.60
2022-12-23T23:50:22.875Z,39.70
2022-12-23T23:52:49.905Z,39.50
2022-12-23T23:55:16.922Z,40.80
2022-12-23T23:57:43.952Z,39.90
